createdAt,value
2022-12-04T00:01:15.796Z,0.30
2022-12-04T00:03:42.602Z,0.20
2022-12-04T00:06:15.301Z,0.20
2022-12-04T00:08:42.885Z,0.20
2022-12-04T00:11:12.199Z,0.20
2022-12-04T00:13:40.226Z,0.20
2022-12-04T00:16:09.602Z,0.20
2022-12-04T00:18:36.499Z,0.20
2022-12-04T00:21:05.400Z,0.20
2022-12-04T00:23:33.160Z,0.20
2022-12-04T00:26:01.853Z,0.20
2022-12-04T00:28:28.732Z,0.20
2022-12-04T00:30:55.882Z,0.20
2022-12-04T00:33:22.709Z,0.20
2022-12-04T00:35:56.309Z,0.20
2022-12-04T00:38:23.087Z,0.20
2022-12-04T00:40:51.319Z,0.20
2022-12-04T00:43:18.605Z,0.20
2022-12-04T00:45:45.538Z,0.20
2022-12-04T00:48:12.575Z,0.20
2022-12-04T00:50:39.683Z,0.20
2022-12-04T00:53:06.641Z,0.20
2022-12-04T00:55:33.546Z,0.20
2022-12-04T00:58:00.426Z,0.20
2022-12-04T01:00:27.312Z,0.20
2022-12-04T01:02:54.192Z,0.20
2022-12-04T01:05:21.095Z,0.20
2022-12-04T01:07:47.970Z,0.20
2022-12-04T01:10:14.836Z,0.20
2022-12-04T01:12:41.620Z,0.20
2022-12-04T01:15:08.859Z,0.20
2022-12-04T01:17:35.647Z,0.20
2022-12-04T01:20:02.396Z,0.20
2022-12-04T01:22:29.185Z,0.20
2022-12-04T01:24:56.535Z,0.20
2022-12-04T01:27:23.557Z,0.20
2022-12-04T01:29:50.433Z,0.20
2022-12-04T01:32:17.347Z,0.20
2022-12-04T01:34:44.189Z,0.20
2022-12-04T01:37:11.026Z,0.20
2022-12-04T01:39:37.957Z,0.20
2022-12-04T01:42:05.219Z,0.20
2022-12-04T01:44:32.291Z,0.20
2022-12-04T01:47:00.479Z,0.20
2022-12-04T01:49:38.051Z,0.20
2022-12-04T01:52:22.070Z,0.20
2022-12-04T01:54:56.950Z,0.30
2022-12-04T01:57:26.060Z,0.20
2022-12-04T02:00:05.899Z,0.30
2022-12-04T02:02:35.174Z,0.30
2022-12-04T02:05:03.792Z,0.30
2022-12-04T02:07:30.724Z,0.30
2022-12-04T02:10:03.630Z,0.30
2022-12-04T02:12:55.660Z,0.30
2022-12-04T02:15:39.206Z,0.30
2022-12-04T02:18:22.135Z,0.30
2022-12-04T02:21:11.763Z,0.30
2022-12-04T02:23:47.563Z,0.30
2022-12-04T02:26:51.933Z,0.30
2022-12-04T02:29:32.395Z,0.30
2022-12-04T02:32:11.253Z,0.30
2022-12-04T02:35:02.025Z,0.30
2022-12-04T02:37:38.380Z,0.30
2022-12-04T02:40:21.738Z,0.40
2022-12-04T02:43:07.526Z,0.40
2022-12-04T02:45:40.404Z,0.40
2022-12-04T02:48:07.982Z,0.40
2022-12-04T02:50:38.474Z,0.40
2022-12-04T02:53:27.662Z,0.40
2022-12-04T02:55:57.238Z,0.40
2022-12-04T02:58:29.565Z,0.50
2022-12-04T03:00:57.863Z,0.50
2022-12-04T03:03:26.876Z,0.50
2022-12-04T03:06:07.682Z,0.40
2022-12-04T03:08:40.772Z,0.40
2022-12-04T03:11:07.916Z,0.40
2022-12-04T03:13:55.345Z,0.40
2022-12-04T03:16:33.318Z,0.40
2022-12-04T03:19:24.314Z,0.50
2022-12-04T03:21:57.427Z,0.50
2022-12-04T03:24:40.574Z,0.50
2022-12-04T03:27:23.850Z,0.50
2022-12-04T03:30:10.025Z,0.50
2022-12-04T03:32:50.813Z,0.50
2022-12-04T03:35:24.340Z,0.50
2022-12-04T03:38:00.009Z,0.50
2022-12-04T03:40:41.839Z,0.50
2022-12-04T03:43:47.376Z,0.60
2022-12-04T03:46:36.088Z,0.60
2022-12-04T03:49:30.259Z,0.60
2022-12-04T03:52:15.316Z,0.60
2022-12-04T03:54:48.466Z,0.60
2022-12-04T03:57:19.111Z,0.60
2022-12-04T03:59:59.088Z,0.60
2022-12-04T04:02:28.767Z,0.60
2022-12-04T04:04:57.137Z,0.60
2022-12-04T04:07:35.842Z,0.60
2022-12-04T04:10:16.317Z,0.60
2022-12-04T04:13:15.954Z,0.70
2022-12-04T04:16:06.496Z,0.70
2022-12-04T04:18:51.898Z,0.70
2022-12-04T04:21:41.574Z,0.70
2022-12-04T04:24:14.640Z,0.70
2022-12-04T04:26:49.158Z,0.70
2022-12-04T04:29:15.964Z,0.70
2022-12-04T04:31:48.523Z,0.70
2022-12-04T04:34:44.908Z,0.70
2022-12-04T04:37:17.740Z,0.70
2022-12-04T04:39:45.857Z,0.80
2022-12-04T04:42:42.090Z,0.80
2022-12-04T04:45:17.551Z,0.80
2022-12-04T04:47:54.910Z,0.80
2022-12-04T04:50:21.935Z,0.80
2022-12-04T04:52:52.035Z,0.70
2022-12-04T04:55:19.849Z,0.70
2022-12-04T04:57:46.715Z,0.70
2022-12-04T05:00:17.836Z,0.70
2022-12-04T05:02:44.788Z,0.70
2022-12-04T05:05:12.854Z,0.70
2022-12-04T05:07:39.642Z,0.70
2022-12-04T05:10:08.166Z,0.70
2022-12-04T05:12:34.954Z,0.70
2022-12-04T05:15:01.740Z,0.80
2022-12-04T05:17:28.549Z,0.80
2022-12-04T05:19:56.794Z,0.80
2022-12-04T05:22:27.290Z,0.80
2022-12-04T05:24:54.537Z,0.80
2022-12-04T05:27:22.523Z,0.90
2022-12-04T05:29:51.831Z,0.90
2022-12-04T05:32:18.577Z,0.90
2022-12-04T05:34:48.581Z,0.90
2022-12-04T05:37:15.345Z,1.00
2022-12-04T05:39:42.171Z,1.00
2022-12-04T05:42:08.976Z,1.00
2022-12-04T05:44:35.758Z,1.00
2022-12-04T05:47:02.734Z,1.00
2022-12-04T05:49:30.785Z,1.00
2022-12-04T05:51:57.659Z,1.00
2022-12-04T05:54:24.997Z,1.00
2022-12-04T05:56:51.894Z,1.00
2022-12-04T05:59:19.188Z,1.00
2022-12-04T06:01:46.391Z,1.10
2022-12-04T06:04:13.288Z,1.00
2022-12-04T06:06:40.262Z,1.00
2022-12-04T06:09:08.184Z,1.00
2022-12-04T06:11:39.607Z,0.90
2022-12-04T06:14:08.146Z,0.90
2022-12-04T06:16:38.267Z,0.80
2022-12-04T06:19:07.910Z,0.80
2022-12-04T06:21:36.342Z,0.70
2022-12-04T06:24:03.776Z,0.70
2022-12-04T06:26:30.608Z,0.60
2022-12-04T06:28:58.740Z,0.60
2022-12-04T06:31:27.731Z,0.70
2022-12-04T06:33:55.443Z,0.70
2022-12-04T06:36:22.706Z,0.80
2022-12-04T06:38:50.655Z,0.80
2022-12-04T06:41:20.560Z,0.90
2022-12-04T06:43:48.533Z,0.90
2022-12-04T06:46:19.909Z,1.00
2022-12-04T06:48:47.074Z,1.10
2022-12-04T06:51:22.943Z,1.10
2022-12-04T06:53:50.170Z,1.10
2022-12-04T06:56:19.267Z,1.20
2022-12-04T06:58:47.406Z,1.20
2022-12-04T07:01:17.058Z,1.30
2022-12-04T07:03:49.544Z,1.30
2022-12-04T07:06:22.614Z,1.40
2022-12-04T07:08:52.121Z,1.40
2022-12-04T07:11:19.984Z,1.50
2022-12-04T07:13:47.121Z,1.50
2022-12-04T07:16:15.552Z,1.50
2022-12-04T07:18:42.814Z,1.50
2022-12-04T07:21:12.427Z,1.50
2022-12-04T07:23:39.284Z,1.60
2022-12-04T07:26:07.745Z,1.60
2022-12-04T07:28:35.959Z,1.60
2022-12-04T07:31:06.874Z,1.60
2022-12-04T07:33:34.266Z,1.60
2022-12-04T07:36:02.071Z,1.60
2022-12-04T07:38:29.847Z,1.60
2022-12-04T07:40:57.726Z,1.60
2022-12-04T07:43:24.980Z,1.70
2022-12-04T07:45:51.848Z,1.70
2022-12-04T07:48:18.691Z,1.70
2022-12-04T07:50:45.400Z,1.70
2022-12-04T07:53:12.264Z,1.70
2022-12-04T07:55:39.153Z,1.80
2022-12-04T07:58:06.406Z,1.80
2022-12-04T08:00:33.247Z,1.80
2022-12-04T08:03:00.033Z,1.90
2022-12-04T08:05:29.848Z,1.90
2022-12-04T08:07:56.827Z,1.90
2022-12-04T08:10:23.643Z,1.90
2022-12-04T08:12:50.400Z,1.90
2022-12-04T08:15:17.181Z,1.90
2022-12-04T08:17:43.967Z,2.00
2022-12-04T08:20:11.064Z,2.00
2022-12-04T08:22:37.837Z,2.00
2022-12-04T08:25:04.888Z,2.10
2022-12-04T08:27:31.635Z,2.10
2022-12-04T08:29:58.488Z,2.10
2022-12-04T08:32:25.294Z,2.20
2022-12-04T08:34:55.730Z,2.20
2022-12-04T08:37:22.877Z,2.20
2022-12-04T08:39:49.688Z,2.30
2022-12-04T08:42:16.456Z,2.30
2022-12-04T08:44:43.197Z,2.30
2022-12-04T08:47:09.958Z,2.40
2022-12-04T08:49:36.770Z,2.40
2022-12-04T08:52:03.612Z,2.40
2022-12-04T08:54:34.565Z,2.50
2022-12-04T08:57:03.273Z,2.50
2022-12-04T08:59:30.054Z,2.60
2022-12-04T09:01:56.954Z,2.60
2022-12-04T09:04:23.809Z,2.60
2022-12-04T09:06:50.594Z,2.70
2022-12-04T09:09:17.378Z,2.70
2022-12-04T09:11:47.147Z,2.70
2022-12-04T09:14:14.027Z,2.80
2022-12-04T09:16:40.829Z,2.80
2022-12-04T09:19:07.561Z,2.80
2022-12-04T09:21:34.315Z,2.80
2022-12-04T09:24:01.147Z,2.90
2022-12-04T09:26:32.650Z,2.90
2022-12-04T09:29:01.517Z,2.90
2022-12-04T09:31:28.666Z,2.90
2022-12-04T09:33:57.862Z,2.90
2022-12-04T09:36:24.694Z,3.00
2022-12-04T09:38:52.744Z,3.00
2022-12-04T09:41:31.569Z,3.00
2022-12-04T09:44:02.236Z,3.10
2022-12-04T09:46:45.226Z,3.10
2022-12-04T09:49:15.670Z,3.20
2022-12-04T09:51:42.746Z,3.20
2022-12-04T09:54:21.493Z,3.30
2022-12-04T09:56:58.900Z,3.40
2022-12-04T09:59:28.074Z,3.40
2022-12-04T10:02:16.650Z,3.30
2022-12-04T10:04:44.727Z,3.30
2022-12-04T10:07:19.123Z,3.30
2022-12-04T10:10:18.542Z,3.30
2022-12-04T10:12:56.202Z,3.30
2022-12-04T16:46:22.319Z,5.00
2022-12-04T16:48:49.073Z,5.00
2022-12-04T16:51:17.392Z,5.00
2022-12-04T16:53:44.142Z,5.00
2022-12-04T16:56:11.022Z,5.00
2022-12-04T16:58:38.286Z,5.00
2022-12-04T17:01:07.992Z,5.00
2022-12-04T17:03:34.914Z,5.00
2022-12-04T17:06:01.797Z,5.00
2022-12-04T17:08:28.604Z,5.00
2022-12-04T17:10:55.581Z,5.00
2022-12-04T17:13:27.564Z,5.00
2022-12-04T17:15:54.886Z,5.00
2022-12-04T17:18:21.779Z,5.00
2022-12-04T17:20:48.610Z,5.10
2022-12-04T17:23:15.446Z,5.10
2022-12-04T17:25:42.165Z,5.10
2022-12-04T17:28:09.170Z,5.10
2022-12-04T17:30:39.280Z,5.10
2022-12-04T17:33:06.121Z,5.10
2022-12-04T17:35:32.849Z,5.10
2022-12-04T17:38:05.650Z,5.10
2022-12-04T17:40:33.085Z,5.10
2022-12-04T17:42:59.817Z,5.10
2022-12-04T17:45:26.716Z,5.10
2022-12-04T17:47:53.395Z,5.10
2022-12-04T17:50:20.232Z,5.20
2022-12-04T17:52:46.981Z,5.10
2022-12-04T17:55:13.769Z,5.10
2022-12-04T17:57:40.494Z,5.10
2022-12-04T18:00:07.911Z,5.10
2022-12-04T18:02:34.722Z,5.10
2022-12-04T18:05:02.151Z,5.10
2022-12-04T18:07:30.497Z,5.10
2022-12-04T18:09:57.876Z,5.10
2022-12-04T18:12:25.130Z,5.20
2022-12-04T18:14:53.042Z,5.10
2022-12-04T18:17:20.950Z,5.20
2022-12-04T18:19:47.855Z,5.10
2022-12-04T18:22:16.899Z,5.20
2022-12-04T18:24:44.599Z,5.20
2022-12-04T18:27:13.003Z,5.20
2022-12-04T18:29:40.612Z,5.20
2022-12-04T18:32:07.740Z,5.20
2022-12-04T18:34:34.875Z,5.20
2022-12-04T18:37:01.937Z,5.20
2022-12-04T18:39:28.805Z,5.20
2022-12-04T18:41:56.953Z,5.20
2022-12-04T18:44:24.071Z,5.20
2022-12-04T18:46:50.963Z,5.30
2022-12-04T18:49:17.986Z,5.30
2022-12-04T18:51:50.240Z,5.30
2022-12-04T18:54:22.048Z,5.30
2022-12-04T18:56:49.469Z,5.30
2022-12-04T18:59:21.760Z,5.30
2022-12-04T19:01:50.310Z,5.30
2022-12-04T19:04:19.418Z,5.30
2022-12-04T19:06:48.588Z,5.30
2022-12-04T19:09:20.430Z,5.30
2022-12-04T19:11:47.746Z,5.30
2022-12-04T19:14:22.703Z,5.30
2022-12-04T19:16:50.477Z,5.30
2022-12-04T19:19:18.045Z,5.30
2022-12-04T19:21:47.034Z,5.30
2022-12-04T19:24:14.155Z,5.30
2022-12-04T19:26:41.360Z,5.30
2022-12-04T19:29:08.871Z,5.30
2022-12-04T19:31:37.848Z,5.30
2022-12-04T19:34:06.492Z,5.30
2022-12-04T19:36:34.640Z,5.30
2022-12-04T19:39:02.046Z,5.30
2022-12-04T19:41:30.581Z,5.30
2022-12-04T19:43:59.974Z,5.30
2022-12-04T19:46:30.388Z,5.30
2022-12-04T19:49:01.698Z,5.30
2022-12-04T19:51:32.037Z,5.30
2022-12-04T19:53:59.593Z,5.30
2022-12-04T19:56:27.667Z,5.30
2022-12-04T19:58:57.015Z,5.30
2022-12-04T20:01:26.793Z,5.30
2022-12-04T20:03:54.052Z,5.30
2022-12-04T20:06:24.265Z,5.30
2022-12-04T20:09:02.500Z,5.30
2022-12-04T20:11:29.956Z,5.30
2022-12-04T20:14:00.552Z,5.30
2022-12-04T20:16:30.325Z,5.30
2022-12-04T20:18:57.641Z,5.30
2022-12-04T20:21:30.527Z,5.30
2022-12-04T20:24:00.509Z,5.30
2022-12-04T20:26:29.776Z,5.30
2022-12-04T20:28:58.351Z,5.30
2022-12-04T20:31:37.449Z,5.30
2022-12-04T20:34:06.547Z,5.20
2022-12-04T20:36:37.199Z,5.30
2022-12-04T20:39:04.798Z,5.20
2022-12-04T20:41:32.278Z,5.20
2022-12-04T20:44:00.598Z,5.30
2022-12-04T20:46:33.763Z,5.20
2022-12-04T20:49:02.774Z,5.20
2022-12-04T20:51:35.162Z,5.20
2022-12-04T20:54:02.908Z,5.20
2022-12-04T20:56:32.996Z,5.20
2022-12-04T20:59:02.198Z,5.20
2022-12-04T21:01:29.907Z,5.20
2022-12-04T21:03:58.883Z,5.30
2022-12-04T21:06:46.828Z,5.20
2022-12-04T21:09:16.472Z,5.20
2022-12-04T21:11:54.851Z,5.20
2022-12-04T21:14:44.867Z,5.20
2022-12-04T21:17:16.757Z,5.20
2022-12-04T21:19:44.094Z,5.20
2022-12-04T21:22:11.057Z,5.20
2022-12-04T21:24:39.223Z,5.20
2022-12-04T21:27:07.939Z,5.30
